Time;durP1;ratioP1;P1;durP2;ratioP2;P2;SDS_P1;SDS_P2;PMS_P1;PMS_P2;Temp;Humidity;BMP_temperature;BMP_pressure;BME280_temperature;BME280_humidity;BME280_pressure;Samples;Min_cycle;Max_cycle;Signal;HPM_P1;HPM_P2
2022/06/27 00:00:09;;;;;;;;;4.00;4.00;;;;;-143.57;100.00;65101.44;5098569;27;45372;-48
2022/06/27 00:02:36;;;;;;;;;6.00;4.00;;;;;-143.57;100.00;65101.44;5097863;27;45381;-48
2022/06/27 00:05:02;;;;;;;;;2.50;2.50;;;;;-143.57;100.00;65101.44;5099067;27;45391;-49
2022/06/27 00:07:27;;;;;;;;;2.00;2.00;;;;;-143.57;100.00;65101.44;5098510;27;46090;-49
2022/06/27 00:09:53;;;;;;;;;2.00;2.00;;;;;-143.57;100.00;65101.44;5098678;27;45436;-51
2022/06/27 00:12:18;;;;;;;;;2.00;2.00;;;;;-143.57;100.00;65101.44;5098956;27;45429;-50
2022/06/27 00:14:43;;;;;;;;;5.00;0.00;;;;;-143.57;100.00;65101.44;5099005;27;45348;-53
2022/06/27 00:17:09;;;;;;;;;5.00;3.25;;;;;-143.57;100.00;65101.44;5098343;27;45428;-50
2022/06/27 00:19:34;;;;;;;;;3.00;3.00;;;;;-143.57;100.00;65101.44;5098477;27;45345;-51
2022/06/27 00:21:59;;;;;;;;;3.00;3.00;;;;;-143.57;100.00;65101.44;5098186;27;45374;-51
2022/06/27 00:24:25;;;;;;;;;4.00;3.75;;;;;-143.57;100.00;65101.44;5098839;27;45318;-49
2022/06/27 00:26:50;;;;;;;;;3.00;3.00;;;;;-143.57;100.00;65101.44;5098181;27;45303;-51
2022/06/27 00:29:16;;;;;;;;;3.00;3.00;;;;;-143.57;100.00;65101.44;5098387;27;45246;-49
2022/06/27 00:31:41;;;;;;;;;3.25;3.00;;;;;-143.57;100.00;65101.44;5098294;27;45772;-51
2022/06/27 00:34:06;;;;;;;;;2.25;2.25;;;;;-143.57;100.00;65101.44;5098452;27;45367;-50
2022/06/27 00:36:32;;;;;;;;;3.00;3.00;;;;;-143.57;100.00;65101.44;5098377;27;45578;-49
2022/06/27 00:38:58;;;;;;;;;2.75;2.50;;;;;-143.57;100.00;65101.44;5097958;27;45557;-50
2022/06/27 00:41:23;;;;;;;;;2.75;2.50;;;;;-143.57;100.00;65101.44;5098455;27;45286;-50
2022/06/27 00:43:49;;;;;;;;;3.00;3.00;;;;;-143.57;100.00;65101.44;5098162;27;45429;-50
2022/06/27 00:46:14;;;;;;;;;3.00;2.00;;;;;-143.57;100.00;65101.44;5097922;27;45366;-53
2022/06/27 00:48:39;;;;;;;;;2.75;2.00;;;;;-143.57;100.00;65101.44;5098134;27;45459;-53
2022/06/27 00:51:05;;;;;;;;;3.25;2.25;;;;;-143.57;100.00;65101.44;5098183;27;45231;-51
2022/06/27 00:53:32;;;;;;;;;2.33;2.00;;;;;-143.57;100.00;65101.44;5098544;27;45577;-48
2022/06/27 00:55:58;;;;;;;;;5.00;2.50;;;;;-143.57;100.00;65101.44;5097609;27;46789;-50
2022/06/27 00:58:24;;;;;;;;;4.00;3.00;;;;;-143.57;100.00;65101.44;5097570;27;45584;-48
2022/06/27 01:00:49;;;;;;;;;2.33;2.00;;;;;-143.57;100.00;65101.44;5098306;27;45460;-52
2022/06/27 01:03:14;;;;;;;;;2.00;2.00;;;;;-143.57;100.00;65101.44;5079734;27;45425;-52
2022/06/27 01:05:51;;;;;;;;;2.33;2.33;;;;;-143.57;100.00;65101.44;5097791;27;47340;-49
2022/06/27 01:08:18;;;;;;;;;3.00;3.00;;;;;-143.57;100.00;65101.44;5097514;27;45165;-49
2022/06/27 01:10:43;;;;;;;;;3.00;1.25;;;;;-143.57;100.00;65101.44;5097877;27;45464;-53
2022/06/27 01:13:08;;;;;;;;;2.00;2.00;;;;;-143.57;100.00;65101.44;5098024;27;45451;-49
2022/06/27 01:15:34;;;;;;;;;3.00;3.00;;;;;-143.57;100.00;65101.44;5079192;27;45287;-48
2022/06/27 01:17:59;;;;;;;;;3.00;2.00;;;;;-143.57;100.00;65101.44;5096715;27;45287;-51
2022/06/27 01:20:25;;;;;;;;;2.25;2.00;;;;;-143.57;100.00;65101.44;5097660;27;45283;-50
2022/06/27 01:22:50;;;;;;;;;1.50;1.50;;;;;-143.57;100.00;65101.44;5097666;27;45233;-48
2022/06/27 01:25:20;;;;;;;;;3.00;3.00;;;;;-143.57;100.00;65101.44;5096837;27;46449;-50
2022/06/27 01:27:45;;;;;;;;;5.00;3.50;;;;;-143.57;100.00;65101.44;5097291;27;45529;-52
2022/06/27 01:30:11;;;;;;;;;4.00;3.00;;;;;-143.57;100.00;65101.44;5097607;27;45405;-51
2022/06/27 01:32:37;;;;;;;;;5.67;4.00;;;;;-143.57;100.00;65101.44;5097849;27;45230;-50
2022/06/27 01:35:03;;;;;;;;;4.00;3.00;;;;;-143.57;100.00;65101.44;5097319;27;45386;-52
2022/06/27 01:37:29;;;;;;;;;5.67;4.00;;;;;-143.57;100.00;65101.44;5079219;27;45274;-52
2022/06/27 01:39:56;;;;;;;;;5.67;3.00;;;;;-143.57;100.00;65101.44;5097584;27;45324;-48
2022/06/27 01:42:23;;;;;;;;;6.00;5.00;;;;;-143.57;100.00;65101.44;5097335;27;45283;-51
2022/06/27 01:44:48;;;;;;;;;6.00;4.50;;;;;-143.57;100.00;65101.44;5097269;27;45453;-48
2022/06/27 01:47:13;;;;;;;;;5.67;3.00;;;;;-143.57;100.00;65101.44;5097270;27;45300;-52
2022/06/27 01:49:39;;;;;;;;;4.75;2.00;;;;;-143.57;100.00;65101.44;5097471;27;45459;-50
2022/06/27 01:52:07;;;;;;;;;5.25;5.25;;;;;-143.57;100.00;65101.44;5097656;27;45294;-49
2022/06/27 01:54:33;;;;;;;;;3.00;3.00;;;;;-143.57;100.00;65101.44;5096927;27;45966;-51
2022/06/27 01:56:58;;;;;;;;;5.00;5.00;;;;;-143.57;100.00;65101.44;5097237;27;45216;-52
2022/06/27 01:59:28;;;;;;;;;5.00;3.50;;;;;-143.57;100.00;65101.44;5097124;27;45327;-51
2022/06/27 02:01:53;;;;;;;;;3.00;3.00;;;;;-143.57;100.00;65101.44;5097316;27;45265;-49
2022/06/27 02:04:19;;;;;;;;;2.75;2.75;;;;;-143.57;100.00;65101.44;5096855;27;46105;-51
2022/06/27 02:06:45;;;;;;;;;4.00;4.00;;;;;-143.57;100.00;65101.44;5096906;27;45402;-51
2022/06/27 02:09:12;;;;;;;;;4.67;4.00;;;;;-143.57;100.00;65101.44;5097109;27;45315;-51
2022/06/27 02:11:39;;;;;;;;;3.00;3.00;;;;;-143.57;100.00;65101.44;5097329;27;45489;-52
2022/06/27 02:14:05;;;;;;;;;3.00;3.00;;;;;-143.57;100.00;65101.44;5096477;27;45740;-52
2022/06/27 02:16:31;;;;;;;;;5.33;4.00;;;;;-143.57;100.00;65101.44;5096808;27;45324;-51
2022/06/27 02:18:56;;;;;;;;;3.00;3.00;;;;;-143.57;100.00;65101.44;5096958;27;45784;-48
2022/06/27 02:21:24;;;;;;;;;4.00;3.00;;;;;-143.57;100.00;65101.44;5097035;27;45403;-49
2022/06/27 02:23:51;;;;;;;;;3.67;3.00;;;;;-143.57;100.00;65101.44;5096556;27;46182;-50
2022/06/27 02:26:18;;;;;;;;;4.33;4.00;;;;;-143.57;100.00;65101.44;5097875;27;45703;-49
2022/06/27 02:28:44;;;;;;;;;2.00;2.00;;;;;-143.57;100.00;65101.44;5100187;27;45443;-52
2022/06/27 02:31:10;;;;;;;;;2.25;2.00;;;;;-143.57;100.00;65101.44;5100507;27;45342;-49
2022/06/27 02:33:38;;;;;;;;;4.33;3.00;;;;;-143.57;100.00;65101.44;5099884;27;46188;-49
2022/06/27 02:36:06;;;;;;;;;2.75;2.75;;;;;-143.57;100.00;65101.44;5099998;27;45490;-51
2022/06/27 02:38:32;;;;;;;;;3.00;3.00;;;;;-143.57;100.00;65101.44;5099921;27;45162;-51
2022/06/27 02:40:59;;;;;;;;;3.00;3.00;;;;;-143.57;100.00;65101.44;5100302;27;45238;-49
2022/06/27 02:43:29;;;;;;;;;5.33;4.33;;;;;-143.57;100.00;65101.44;5099608;27;47100;-48
2022/06/27 02:45:55;;;;;;;;;5.00;4.50;;;;;-143.57;100.00;65101.44;5099722;27;45482;-48
2022/06/27 02:48:23;;;;;;;;;4.00;3.00;;;;;-143.57;100.00;65101.44;5100208;27;45330;-49
2022/06/27 02:50:54;;;;;;;;;4.33;4.00;;;;;-143.57;100.00;65101.44;5100019;27;45483;-50
2022/06/27 02:53:24;;;;;;;;;4.00;3.00;;;;;-143.57;100.00;65101.44;5099637;27;47095;-50
2022/06/27 02:55:53;;;;;;;;;6.33;5.00;;;;;-143.57;100.00;65101.44;5099818;27;45320;-50
2022/06/27 02:58:41;;;;;;;;;4.00;4.00;;;;;-143.57;100.00;65101.44;5099562;27;45394;-50
2022/06/27 03:01:09;;;;;;;;;3.67;3.00;;;;;-143.57;100.00;65101.44;5099864;27;45543;-48
2022/06/27 03:03:36;;;;;;;;;3.00;3.00;;;;;-143.57;100.00;65101.44;5099540;27;46040;-50
2022/06/27 03:06:08;;;;;;;;;7.33;4.00;;;;;-143.57;100.00;65101.44;5099820;27;45496;-48
2022/06/27 03:08:39;;;;;;;;;6.00;5.00;;;;;-143.57;100.00;65101.44;5099687;27;45178;-48
2022/06/27 03:11:06;;;;;;;;;4.00;4.00;;;;;-143.57;100.00;65101.44;5099652;27;45409;-49
2022/06/27 03:13:32;;;;;;;;;3.00;3.00;;;;;-143.57;100.00;65101.44;5099308;27;46453;-49
2022/06/27 03:15:57;;;;;;;;;7.00;4.00;;;;;-143.57;100.00;65101.44;5099394;27;45194;-52
2022/06/27 03:18:23;;;;;;;;;4.00;3.67;;;;;-143.57;100.00;65101.44;5099427;27;45294;-52
2022/06/27 03:20:48;;;;;;;;;6.00;5.00;;;;;-143.57;100.00;65101.44;5099917;27;45619;-48
2022/06/27 03:23:15;;;;;;;;;4.33;2.67;;;;;-143.57;100.00;65101.44;5099084;27;45358;-51
2022/06/27 03:25:41;;;;;;;;;3.25;2.25;;;;;-143.57;100.00;65101.44;5098838;27;45362;-52
2022/06/27 03:28:06;;;;;;;;;4.67;3.00;;;;;-143.57;100.00;65101.44;5099887;27;45389;-49
2022/06/27 03:30:32;;;;;;;;;5.67;3.00;;;;;-143.57;100.00;65101.44;5099362;27;45354;-49
2022/06/27 03:32:57;;;;;;;;;3.67;3.67;;;;;-143.57;100.00;65101.44;5099415;27;45962;-53
2022/06/27 03:35:23;;;;;;;;;1.00;1.00;;;;;-143.57;100.00;65101.44;5099096;27;45286;-52
2022/06/27 03:37:48;;;;;;;;;3.33;2.33;;;;;-143.57;100.00;65101.44;5098026;27;45314;-50
2022/06/27 03:40:13;;;;;;;;;4.33;4.00;;;;;-143.57;100.00;65101.44;5081106;27;45446;-50
2022/06/27 03:42:39;;;;;;;;;4.67;4.67;;;;;-143.57;100.00;65101.44;5099009;27;46222;-48
2022/06/27 03:45:04;;;;;;;;;5.67;5.00;;;;;-143.57;100.00;65101.44;5098979;27;45333;-50
2022/06/27 03:47:30;;;;;;;;;4.00;3.00;;;;;-143.57;100.00;65101.44;5098865;27;45244;-51
2022/06/27 03:50:01;;;;;;;;;6.50;3.00;;;;;-143.57;100.00;65101.44;5099427;27;45336;-50
2022/06/27 03:52:27;;;;;;;;;3.00;3.00;;;;;-143.57;100.00;65101.44;5098889;27;45388;-50
2022/06/27 03:54:53;;;;;;;;;3.00;3.00;;;;;-143.57;100.00;65101.44;5098718;27;45382;-52
2022/06/27 03:57:18;;;;;;;;;4.00;2.00;;;;;-143.57;100.00;65101.44;5098962;27;45439;-51
2022/06/27 03:59:44;;;;;;;;;3.67;3.00;;;;;-143.57;100.00;65101.44;5098828;27;45347;-50
2022/06/27 04:02:09;;;;;;;;;5.00;4.00;;;;;-143.57;100.00;65101.44;5098453;27;46089;-51
2022/06/27 04:04:35;;;;;;;;;3.67;3.67;;;;;-143.57;100.00;65101.44;5098763;27;45449;-50
2022/06/27 04:07:02;;;;;;;;;2.33;2.33;;;;;-143.57;100.00;65101.44;5098869;27;45351;-50
2022/06/27 04:09:28;;;;;;;;;4.33;4.00;;;;;-143.57;100.00;65101.44;5098886;27;45379;-50
2022/06/27 04:11:54;;;;;;;;;4.67;3.67;;;;;-143.57;100.00;65101.44;5098498;27;46502;-49
2022/06/27 04:14:19;;;;;;;;;3.00;3.00;;;;;-143.57;100.00;65101.44;5098272;27;45362;-51
2022/06/27 04:16:44;;;;;;;;;3.33;3.33;;;;;-143.57;100.00;65101.44;5098580;27;45227;-50
2022/06/27 04:19:10;;;;;;;;;2.67;2.33;;;;;-143.57;100.00;65101.44;5098720;27;45432;-52
2022/06/27 04:21:35;;;;;;;;;4.67;4.00;;;;;-143.57;100.00;65101.44;5098055;27;47103;-51
2022/06/27 04:24:02;;;;;;;;;6.33;3.00;;;;;-143.57;100.00;65101.44;5098282;27;45446;-50
2022/06/27 04:26:27;;;;;;;;;5.00;3.00;;;;;-143.57;100.00;65101.44;5098374;27;45360;-52
2022/06/27 04:28:53;;;;;;;;;4.33;3.00;;;;;-143.57;100.00;65101.44;5098701;27;45569;-53
2022/06/27 04:31:19;;;;;;;;;3.67;3.67;;;;;-143.57;100.00;65101.44;5098142;27;45479;-52
2022/06/27 04:33:45;;;;;;;;;3.00;3.00;;;;;-143.57;100.00;65101.44;5098195;27;45372;-53
2022/06/27 04:36:11;;;;;;;;;4.33;4.33;;;;;-143.57;100.00;65101.44;5098265;27;45429;-52
2022/06/27 04:38:38;;;;;;;;;3.67;3.67;;;;;-143.57;100.00;65101.44;5098621;27;45330;-52
2022/06/27 04:41:04;;;;;;;;;5.67;4.67;;;;;-143.57;100.00;65101.44;5098023;27;47284;-49
2022/06/27 04:43:29;;;;;;;;;3.00;3.00;;;;;-143.57;100.00;65101.44;5097986;27;45351;-49
2022/06/27 04:45:55;;;;;;;;;3.00;3.00;;;;;-143.57;100.00;65101.44;5097987;27;45540;-51
2022/06/27 04:48:21;;;;;;;;;4.00;4.00;;;;;-143.57;100.00;65101.44;5097874;27;45384;-50
2022/06/27 04:50:47;;;;;;;;;5.00;3.00;;;;;-143.57;100.00;65101.44;5098014;27;46121;-53
2022/06/27 04:53:13;;;;;;;;;5.33;4.00;;;;;-143.57;100.00;65101.44;5098065;27;45413;-49
2022/06/27 04:55:39;;;;;;;;;2.75;2.00;;;;;-143.57;100.00;65101.44;5097926;27;45515;-51
2022/06/27 04:58:05;;;;;;;;;4.00;3.00;;;;;-143.57;100.00;65101.44;5098141;27;45334;-49
2022/06/27 05:00:31;;;;;;;;;3.00;3.00;;;;;-143.57;100.00;65101.44;5097517;27;46169;-49
2022/06/27 05:02:56;;;;;;;;;2.00;2.00;;;;;-143.57;100.00;65101.44;5097770;27;45327;-52
2022/06/27 05:05:22;;;;;;;;;2.33;2.33;;;;;-143.57;100.00;65101.44;5097919;27;45457;-52
2022/06/27 05:07:47;;;;;;;;;3.00;3.00;;;;;-143.57;100.00;65101.44;5098015;27;45359;-52
2022/06/27 05:10:13;;;;;;;;;7.00;4.00;;;;;-143.57;100.00;65101.44;5097885;27;45353;-50
2022/06/27 05:12:38;;;;;;;;;6.00;4.00;;;;;-143.57;100.00;65101.44;5097821;27;45331;-51
2022/06/27 05:15:04;;;;;;;;;6.00;4.00;;;;;-143.57;100.00;65101.44;5097604;27;45386;-51
2022/06/27 05:17:30;;;;;;;;;2.67;2.67;;;;;-143.57;100.00;65101.44;5097646;27;45516;-51
2022/06/27 05:19:56;;;;;;;;;2.00;2.00;;;;;-143.57;100.00;65101.44;5097522;27;45784;-51
2022/06/27 05:22:21;;;;;;;;;4.33;3.33;;;;;-143.57;100.00;65101.44;5097439;27;45348;-52
2022/06/27 05:24:50;;;;;;;;;4.33;3.00;;;;;-143.57;100.00;65101.44;5097745;27;45385;-51
2022/06/27 05:27:17;;;;;;;;;3.00;3.00;;;;;-143.57;100.00;65101.44;5097750;27;45410;-52
2022/06/27 05:29:43;;;;;;;;;3.00;2.25;;;;;-143.57;100.00;65101.44;5097500;27;46141;-50
2022/06/27 05:32:09;;;;;;;;;3.00;3.00;;;;;-143.57;100.00;65101.44;5097358;27;45235;-51
2022/06/27 05:34:35;;;;;;;;;6.33;4.67;;;;;-143.57;100.00;65101.44;5097741;27;45289;-51
2022/06/27 05:37:00;;;;;;;;;2.75;2.75;;;;;-143.57;100.00;65101.44;5097982;27;45783;-52
2022/06/27 05:39:26;;;;;;;;;4.67;4.67;;;;;-143.57;100.00;65101.44;5097376;27;46263;-52
2022/06/27 05:41:52;;;;;;;;;4.00;3.33;;;;;-143.57;100.00;65101.44;5097594;27;45329;-50
2022/06/27 05:44:17;;;;;;;;;4.00;4.00;;;;;-143.57;100.00;65101.44;5097532;27;45519;-54
2022/06/27 05:46:42;;;;;;;;;4.25;4.25;;;;;-143.57;100.00;65101.44;5097476;27;45439;-52
2022/06/27 05:49:11;;;;;;;;;3.00;3.00;;;;;-143.57;100.00;65101.44;5097069;27;46274;-49
2022/06/27 05:51:37;;;;;;;;;5.67;4.00;;;;;-143.57;100.00;65101.44;5097001;27;45486;-51
2022/06/27 05:54:03;;;;;;;;;3.25;3.25;;;;;-143.57;100.00;65101.44;5097353;27;45252;-51
2022/06/27 05:56:30;;;;;;;;;3.00;3.00;;;;;-143.57;100.00;65101.44;5097247;27;45371;-51
2022/06/27 05:58:55;;;;;;;;;4.67;3.67;;;;;-143.57;100.00;65101.44;5096644;27;45494;-53
2022/06/27 06:01:22;;;;;;;;;3.00;3.00;;;;;-143.57;100.00;65101.44;5098559;27;45315;-51
2022/06/27 06:03:48;;;;;;;;;4.00;4.00;;;;;-143.57;100.00;65101.44;5100914;27;45328;-53
2022/06/27 06:06:13;;;;;;;;;3.00;3.00;;;;;-143.57;100.00;65101.44;5100977;27;45367;-53
2022/06/27 06:08:40;;;;;;;;;5.00;3.50;;;;;-143.57;100.00;65101.44;5100444;27;45321;-52
2022/06/27 06:11:05;;;;;;;;;4.00;4.00;;;;;-143.57;100.00;65101.44;5100343;27;45318;-52
2022/06/27 06:13:31;;;;;;;;;4.75;2.75;;;;;-143.57;100.00;65101.44;5100457;27;45534;-53
2022/06/27 06:15:57;;;;;;;;;4.00;3.00;;;;;-143.57;100.00;65101.44;5100609;27;45417;-54
2022/06/27 06:18:23;;;;;;;;;5.00;3.50;;;;;-143.57;100.00;65101.44;5100292;27;45815;-53
2022/06/27 06:20:49;;;;;;;;;4.00;2.50;;;;;-143.57;100.00;65101.44;5100453;27;45245;-51
2022/06/27 06:23:14;;;;;;;;;4.00;3.00;;;;;-143.57;100.00;65101.44;5100146;27;45319;-54
2022/06/27 06:25:41;;;;;;;;;3.00;3.00;;;;;-143.57;100.00;65101.44;5100632;27;45398;-53
2022/06/27 06:28:07;;;;;;;;;5.25;2.75;;;;;-143.57;100.00;65101.44;5100195;27;45378;-52
2022/06/27 06:30:33;;;;;;;;;3.67;3.67;;;;;-143.57;100.00;65101.44;5100233;27;45428;-53
2022/06/27 06:33:02;;;;;;;;;4.00;4.00;;;;;-143.57;100.00;65101.44;5100454;27;45343;-53
2022/06/27 06:35:30;;;;;;;;;5.00;3.00;;;;;-143.57;100.00;65101.44;5100365;27;45413;-54
2022/06/27 06:37:56;;;;;;;;;3.67;3.00;;;;;-143.57;100.00;65101.44;5099989;27;46209;-53
2022/06/27 06:40:21;;;;;;;;;7.50;3.75;;;;;-143.57;100.00;65101.44;5100276;27;45488;-53
2022/06/27 06:42:48;;;;;;;;;5.00;3.00;;;;;-143.57;100.00;65101.44;5099347;27;45235;-52
2022/06/27 06:45:13;;;;;;;;;4.00;2.25;;;;;-143.57;100.00;65101.44;5100516;27;45388;-51
2022/06/27 06:47:46;;;;;;;;;3.00;3.00;;;;;-143.57;100.00;65101.44;5099860;27;45981;-51
2022/06/27 06:50:16;;;;;;;;;3.00;3.00;;;;;-143.57;100.00;65101.44;5099891;27;45337;-51
2022/06/27 06:52:42;;;;;;;;;5.50;3.50;;;;;-143.57;100.00;65101.44;5100337;27;45485;-53
2022/06/27 06:55:09;;;;;;;;;3.00;3.00;;;;;-143.57;100.00;65101.44;5100135;27;45276;-51
2022/06/27 06:57:37;;;;;;;;;5.00;3.00;;;;;-143.57;100.00;65101.44;5099386;27;46087;-51
2022/06/27 07:00:03;;;;;;;;;3.75;2.75;;;;;-143.57;100.00;65101.44;5099783;27;45472;-52
2022/06/27 07:02:29;;;;;;;;;5.50;3.00;;;;;-143.57;100.00;65101.44;5099463;27;45315;-53
2022/06/27 07:04:56;;;;;;;;;4.75;3.00;;;;;-143.57;100.00;65101.44;5100064;27;45553;-51
2022/06/27 07:07:25;;;;;;;;;3.50;3.50;;;;;-143.57;100.00;65101.44;5099441;27;46213;-53
2022/06/27 07:09:51;;;;;;;;;3.50;3.00;;;;;-143.57;100.00;65101.44;5098494;27;45366;-51
2022/06/27 07:12:17;;;;;;;;;4.00;3.50;;;;;-143.57;100.00;65101.44;5099591;27;45220;-54
2022/06/27 07:14:45;;;;;;;;;4.00;2.25;;;;;-143.57;100.00;65101.44;5099875;27;45350;-53
2022/06/27 07:17:10;;;;;;;;;3.50;3.50;;;;;-143.57;100.00;65101.44;5099177;27;46232;-53
2022/06/27 07:19:38;;;;;;;;;4.25;3.00;;;;;-143.57;100.00;65101.44;5099306;27;45444;-54
2022/06/27 07:22:04;;;;;;;;;5.00;4.00;;;;;-143.57;100.00;65101.44;5099178;27;45263;-51
2022/06/27 07:24:30;;;;;;;;;3.75;2.50;;;;;-143.57;100.00;65101.44;5099716;27;45335;-53
2022/06/27 07:26:57;;;;;;;;;4.00;4.00;;;;;-143.57;100.00;65101.44;5099241;27;46082;-53
2022/06/27 07:29:23;;;;;;;;;2.50;2.50;;;;;-143.57;100.00;65101.44;5098666;27;45556;-52
2022/06/27 07:31:48;;;;;;;;;2.00;2.00;;;;;-143.57;100.00;65101.44;5099214;27;45302;-51
2022/06/27 07:34:17;;;;;;;;;4.25;3.25;;;;;-143.57;100.00;65101.44;5099380;27;45357;-52
2022/06/27 07:36:43;;;;;;;;;3.00;2.25;;;;;-143.57;100.00;65101.44;5098776;27;46554;-52
2022/06/27 07:39:09;;;;;;;;;5.75;3.25;;;;;-143.57;100.00;65101.44;5097762;27;45451;-53
2022/06/27 07:41:34;;;;;;;;;3.00;3.00;;;;;-143.57;100.00;65101.44;5098842;27;45513;-53
2022/06/27 07:44:03;;;;;;;;;1.25;1.00;;;;;-143.57;100.00;65101.44;5098214;27;45207;-52
2022/06/27 07:46:31;;;;;;;;;4.00;3.00;;;;;-143.57;100.00;65101.44;5098467;27;45858;-51
2022/06/27 07:48:57;;;;;;;;;2.75;2.75;;;;;-143.57;100.00;65101.44;5097901;27;45569;-52
2022/06/27 07:51:22;;;;;;;;;2.25;2.00;;;;;-143.57;100.00;65101.44;5097379;27;45784;-51
2022/06/27 07:53:51;;;;;;;;;3.00;3.00;;;;;-143.57;100.00;65101.44;5098156;27;45435;-48
2022/06/27 07:56:18;;;;;;;;;2.80;1.80;;;;;-143.57;100.00;65101.44;5095766;27;46224;-54
2022/06/27 07:58:44;;;;;;;;;2.60;2.60;;;;;-143.57;100.00;65101.44;5096433;27;45501;-50
2022/06/27 08:01:14;;;;;;;;;4.25;3.25;;;;;-143.57;100.00;65101.44;5096877;27;45370;-51
2022/06/27 08:03:44;;;;;;;;;5.60;3.80;;;;;-143.57;100.00;65101.44;5097799;27;45776;-50
2022/06/27 08:06:14;;;;;;;;;2.00;2.00;;;;;-143.57;100.00;65101.44;5096964;27;46506;-50
2022/06/27 08:08:42;;;;;;;;;2.80;2.80;;;;;-143.57;100.00;65101.44;5097088;27;45389;-50
2022/06/27 08:11:12;;;;;;;;;2.40;2.40;;;;;-143.57;100.00;65101.44;5097518;27;45389;-52
2022/06/27 08:13:38;;;;;;;;;4.00;3.00;;;;;-143.57;100.00;65101.44;5097353;27;45313;-51
2022/06/27 08:16:05;;;;;;;;;2.00;2.00;;;;;-143.57;100.00;65101.44;5096976;27;45987;-54
2022/06/27 08:18:31;;;;;;;;;6.00;3.00;;;;;-143.57;100.00;65101.44;5096671;27;45480;-50
2022/06/27 08:20:58;;;;;;;;;3.00;3.00;;;;;-143.57;100.00;65101.44;5096802;27;45519;-52
2022/06/27 08:23:24;;;;;;;;;2.40;2.40;;;;;-143.57;100.00;65101.44;5096465;27;45424;-53
2022/06/27 08:25:49;;;;;;;;;2.00;2.00;;;;;-143.57;100.00;65101.44;5096747;27;46950;-51
2022/06/27 08:28:15;;;;;;;;;2.25;2.25;;;;;-143.57;100.00;65101.44;5096993;27;45386;-50
2022/06/27 08:30:42;;;;;;;;;3.40;1.80;;;;;-143.57;100.00;65101.44;5096927;27;45389;-51
2022/06/27 08:33:08;;;;;;;;;2.00;2.00;;;;;-143.57;100.00;65101.44;5096899;27;45535;-53
2022/06/27 08:35:35;;;;;;;;;2.60;2.20;;;;;-143.57;100.00;65101.44;5096769;27;46280;-50
2022/06/27 08:38:01;;;;;;;;;2.60;2.60;;;;;-143.57;100.00;65101.44;5096463;27;45460;-49
2022/06/27 08:40:28;;;;;;;;;1.80;1.80;;;;;-143.57;100.00;65101.44;5096655;27;45390;-47
2022/06/27 08:42:55;;;;;;;;;3.00;3.00;;;;;-143.57;100.00;65101.44;5096669;27;45359;-51
2022/06/27 08:45:23;;;;;;;;;2.40;2.00;;;;;-143.57;100.00;65101.44;5095160;27;45464;-53
2022/06/27 08:47:50;;;;;;;;;2.00;2.00;;;;;-143.57;100.00;65101.44;5112061;27;45439;-52
2022/06/27 08:50:16;;;;;;;;;3.20;1.60;;;;;-143.57;100.00;65101.44;5096141;27;45445;-54
2022/06/27 08:52:45;;;;;;;;;4.00;1.75;;;;;-143.57;100.00;65101.44;5112197;27;45456;-53
2022/06/27 08:55:11;;;;;;;;;2.00;2.00;;;;;-143.57;100.00;65101.44;5096252;27;47153;-50
2022/06/27 08:57:39;;;;;;;;;2.50;2.50;;;;;-143.57;100.00;65101.44;5095923;27;45508;-49
2022/06/27 09:00:09;;;;;;;;;2.00;2.00;;;;;-143.57;100.00;65101.44;5096061;27;45473;-51
2022/06/27 09:02:42;;;;;;;;;2.60;1.00;;;;;-143.57;100.00;65101.44;5096575;27;45543;-54
2022/06/27 09:05:13;;;;;;;;;1.00;1.00;;;;;-143.57;100.00;65101.44;5095924;27;47149;-51
2022/06/27 09:07:50;;;;;;;;;1.80;1.80;;;;;-143.57;100.00;65101.44;5096115;27;45460;-52
2022/06/27 09:10:36;;;;;;;;;1.00;1.00;;;;;-143.57;100.00;65101.44;5095912;27;45424;-52
2022/06/27 09:13:03;;;;;;;;;0.60;0.20;;;;;-143.57;100.00;65101.44;5096391;27;45449;-54
2022/06/27 09:15:53;;;;;;;;;2.80;1.00;;;;;-143.57;100.00;65101.44;5095952;27;46203;-53
2022/06/27 09:18:24;;;;;;;;;0.00;0.00;;;;;-143.57;100.00;65101.44;5095907;27;45414;-54
2022/06/27 09:20:54;;;;;;;;;0.00;0.00;;;;;-143.57;100.00;65101.44;5096177;27;45370;-53
2022/06/27 09:23:31;;;;;;;;;0.80;0.80;;;;;-143.57;100.00;65101.44;5095957;27;45447;-54
2022/06/27 09:26:06;;;;;;;;;1.00;1.00;;;;;-143.57;100.00;65101.44;5095830;27;46355;-55
2022/06/27 09:28:37;;;;;;;;;2.20;1.00;;;;;-143.57;100.00;65101.44;5095874;27;45366;-52
2022/06/27 09:31:03;;;;;;;;;0.20;0.20;;;;;-143.57;100.00;65101.44;5095892;27;45401;-53
2022/06/27 09:33:31;;;;;;;;;1.40;1.40;;;;;-143.57;100.00;65101.44;5096090;27;45457;-54
2022/06/27 09:35:57;;;;;;;;;0.60;0.60;;;;;-143.57;100.00;65101.44;5098157;27;45510;-53
2022/06/27 09:38:23;;;;;;;;;1.00;1.00;;;;;-143.57;100.00;65101.44;5099261;27;45370;-52
2022/06/27 09:40:49;;;;;;;;;0.25;0.25;;;;;-143.57;100.00;65101.44;5099792;27;45500;-52
2022/06/27 09:43:17;;;;;;;;;1.00;1.00;;;;;-143.57;100.00;65101.44;5099726;27;45885;-54
2022/06/27 09:45:43;;;;;;;;;2.60;0.00;;;;;-143.57;100.00;65101.44;5099412;27;45394;-54
2022/06/27 09:48:09;;;;;;;;;2.00;1.00;;;;;-143.57;100.00;65101.44;5099272;27;45497;-54
2022/06/27 09:50:37;;;;;;;;;0.00;0.00;;;;;-143.57;100.00;65101.44;5099404;27;45533;-53
2022/06/27 09:53:03;;;;;;;;;0.80;0.80;;;;;-143.57;100.00;65101.44;5099767;27;45588;-53
2022/06/27 09:55:30;;;;;;;;;0.60;0.60;;;;;-143.57;100.00;65101.44;5099091;27;45505;-53
2022/06/27 09:57:56;;;;;;;;;2.20;0.80;;;;;-143.57;100.00;65101.44;5099002;27;45403;-52
2022/06/27 10:00:23;;;;;;;;;1.00;1.00;;;;;-143.57;100.00;65101.44;5099496;27;45382;-53
2022/06/27 10:02:49;;;;;;;;;0.00;0.00;;;;;-143.57;100.00;65101.44;5099376;27;45519;-49
2022/06/27 10:05:16;;;;;;;;;2.60;0.20;;;;;-143.57;100.00;65101.44;5099089;27;47041;-53
2022/06/27 10:08:02;;;;;;;;;0.00;0.00;;;;;-143.57;100.00;65101.44;5099011;27;45406;-52
2022/06/27 10:10:29;;;;;;;;;2.20;0.60;;;;;-143.57;100.00;65101.44;5098860;27;45509;-52
2022/06/27 10:13:00;;;;;;;;;0.00;0.00;;;;;-143.57;100.00;65101.44;5098955;27;45477;-53
2022/06/27 10:15:30;;;;;;;;;0.00;0.00;;;;;-143.57;100.00;65101.44;5098954;27;46374;-53
2022/06/27 10:18:02;;;;;;;;;0.60;0.60;;;;;-143.57;100.00;65101.44;5098788;27;45821;-53
2022/06/27 10:20:35;;;;;;;;;1.00;0.80;;;;;-143.57;100.00;65101.44;5099076;27;45253;-52
2022/06/27 10:23:04;;;;;;;;;0.80;0.80;;;;;-143.57;100.00;65101.44;5099002;27;45406;-54
2022/06/27 10:25:29;;;;;;;;;0.00;0.00;;;;;-143.57;100.00;65101.44;5098947;27;46226;-54
2022/06/27 10:28:07;;;;;;;;;1.00;1.00;;;;;-143.57;100.00;65101.44;5098711;27;45438;-54
2022/06/27 10:30:38;;;;;;;;;0.00;0.00;;;;;-143.57;100.00;65101.44;5098672;27;45481;-54
2022/06/27 10:33:24;;;;;;;;;1.00;0.80;;;;;-143.57;100.00;65101.44;5099177;27;45536;-55
2022/06/27 10:35:59;;;;;;;;;0.00;0.00;;;;;-143.57;100.00;65101.44;5087812;27;45382;-54
2022/06/27 10:38:54;;;;;;;;;0.60;0.40;;;;;-143.57;100.00;65101.44;5098566;27;45457;-53
2022/06/27 10:41:20;;;;;;;;;1.20;0.40;;;;;-143.57;100.00;65101.44;5035486;28;45513;-52
2022/06/27 10:43:49;;;;;;;;;2.00;0.25;;;;;-143.57;100.00;65101.44;5035664;28;45646;-51
2022/06/27 10:46:15;;;;;;;;;0.40;0.40;;;;;-143.57;100.00;65101.44;5034776;28;45380;-53
2022/06/27 10:48:41;;;;;;;;;2.00;1.00;;;;;-143.57;100.00;65101.44;5034865;28;45319;-51
2022/06/27 10:51:18;;;;;;;;;0.40;0.00;;;;;-143.57;100.00;65101.44;5034104;28;45459;-50
2022/06/27 10:53:49;;;;;;;;;0.40;0.00;;;;;-143.57;100.00;65101.44;5035823;28;45454;-50
2022/06/27 10:56:43;;;;;;;;;2.20;1.20;;;;;-143.57;100.00;65101.44;5035079;28;46884;-53
2022/06/27 10:59:14;;;;;;;;;2.00;0.00;;;;;-143.57;100.00;65101.44;4995241;28;45212;-52
2022/06/27 11:02:05;;;;;;;;;1.00;1.00;;;;;-143.57;100.00;65101.44;4995305;28;45563;-53
2022/06/27 11:04:35;;;;;;;;;0.00;0.00;;;;;-143.57;100.00;65101.44;4992409;28;45561;-53
2022/06/27 11:07:09;;;;;;;;;0.40;0.40;;;;;-143.57;100.00;65101.44;4995190;28;46473;-53
2022/06/27 11:09:39;;;;;;;;;0.40;0.20;;;;;-143.57;100.00;65101.44;4995076;28;45509;-50